sensor_id;sensor_type;location;lat;lon;timestamp;pressure;altitude;pressure_sealevel;temperature;humidity
11440;BME280;5776;51.814;4.510;2023-04-15T00:01:26;100839.88;;;10.15;88.60
11440;BME280;5776;51.814;4.510;2023-04-15T00:03:53;100847.72;;;10.17;89.59
11440;BME280;5776;51.814;4.510;2023-04-15T00:06:20;100843.69;;;10.14;88.47
11440;BME280;5776;51.814;4.510;2023-04-15T00:08:47;100842.06;;;10.13;89.20
11440;BME280;5776;51.814;4.510;2023-04-15T00:11:14;100844.78;;;10.13;88.43
11440;BME280;5776;51.814;4.510;2023-04-15T00:13:40;100841.25;;;10.13;89.52
11440;BME280;5776;51.814;4.510;2023-04-15T00:16:08;100846.97;;;10.11;88.97
11440;BME280;5776;51.814;4.510;2023-04-15T00:18:35;100843.47;;;10.11;89.33
11440;BME280;5776;51.814;4.510;2023-04-15T00:21:02;100848.06;;;10.10;89.57
11440;BME280;5776;51.814;4.510;2023-04-15T00:23:29;100846.72;;;10.08;89.53
11440;BME280;5776;51.814;4.510;2023-04-15T00:25:55;100844.00;;;10.08;89.19
11440;BME280;5776;51.814;4.510;2023-04-15T00:28:21;100847.81;;;10.07;89.96
11440;BME280;5776;51.814;4.510;2023-04-15T00:30:47;100852.44;;;10.06;89.51
11440;BME280;5776;51.814;4.510;2023-04-15T00:33:13;100844.56;;;10.05;90.11
11440;BME280;5776;51.814;4.510;2023-04-15T00:35:39;100855.44;;;10.05;89.79
11440;BME280;5776;51.814;4.510;2023-04-15T00:38:05;100856.22;;;10.05;89.95
11440;BME280;5776;51.814;4.510;2023-04-15T00:40:35;100854.91;;;10.03;90.14
11440;BME280;5776;51.814;4.510;2023-04-15T00:43:01;100845.97;;;10.02;89.95
11440;BME280;5776;51.814;4.510;2023-04-15T00:45:27;100841.91;;;10.00;89.58
11440;BME280;5776;51.814;4.510;2023-04-15T00:47:53;100846.53;;;9.99;89.46
11440;BME280;5776;51.814;4.510;2023-04-15T00:50:20;100852.53;;;9.96;90.30
11440;BME280;5776;51.814;4.510;2023-04-15T00:52:47;100847.09;;;9.96;90.45
11440;BME280;5776;51.814;4.510;2023-04-15T00:55:12;100843.84;;;9.94;89.78
11440;BME280;5776;51.814;4.510;2023-04-15T00:57:39;100840.63;;;9.92;90.49
11440;BME280;5776;51.814;4.510;2023-04-15T01:00:05;100838.16;;;9.90;90.75
11440;BME280;5776;51.814;4.510;2023-04-15T01:02:34;100839.00;;;9.91;90.55
11440;BME280;5776;51.814;4.510;2023-04-15T01:05:00;100840.63;;;9.92;89.92
11440;BME280;5776;51.814;4.510;2023-04-15T01:07:26;100841.72;;;9.91;90.51
11440;BME280;5776;51.814;4.510;2023-04-15T01:09:52;100841.19;;;9.89;90.34
11440;BME280;5776;51.814;4.510;2023-04-15T01:12:19;100842.25;;;9.88;90.58
11440;BME280;5776;51.814;4.510;2023-04-15T01:14:45;100837.94;;;9.87;90.61
11440;BME280;5776;51.814;4.510;2023-04-15T01:17:11;100837.94;;;9.87;90.07
11440;BME280;5776;51.814;4.510;2023-04-15T01:19:38;100850.16;;;9.84;89.80
11440;BME280;5776;51.814;4.510;2023-04-15T01:22:04;100846.66;;;9.84;90.22
11440;BME280;5776;51.814;4.510;2023-04-15T01:24:31;100843.94;;;9.84;89.74
11440;BME280;5776;51.814;4.510;2023-04-15T01:26:58;100840.69;;;9.82;90.71
11440;BME280;5776;51.814;4.510;2023-04-15T01:29:23;100846.13;;;9.82;90.54
11440;BME280;5776;51.814;4.510;2023-04-15T01:31:50;100849.41;;;9.79;90.46
11440;BME280;5776;51.814;4.510;2023-04-15T01:34:17;100848.28;;;9.80;89.60
11440;BME280;5776;51.814;4.510;2023-04-15T01:36:43;100837.75;;;9.78;90.35
11440;BME280;5776;51.814;4.510;2023-04-15T01:39:09;100846.16;;;9.77;90.13
11440;BME280;5776;51.814;4.510;2023-04-15T01:41:35;100836.41;;;9.76;90.36
11440;BME280;5776;51.814;4.510;2023-04-15T01:44:01;100838.28;;;9.75;90.18
11440;BME280;5776;51.814;4.510;2023-04-15T01:46:27;100841.31;;;9.73;89.52
11440;BME280;5776;51.814;4.510;2023-04-15T01:48:53;100845.09;;;9.72;90.21
11440;BME280;5776;51.814;4.510;2023-04-15T01:51:19;100839.13;;;9.70;89.53
11440;BME280;5776;51.814;4.510;2023-04-15T01:53:45;100838.31;;;9.70;90.05
11440;BME280;5776;51.814;4.510;2023-04-15T01:56:11;100842.94;;;9.69;89.69
11440;BME280;5776;51.814;4.510;2023-04-15T01:58:37;100848.38;;;9.69;89.58
11440;BME280;5776;51.814;4.510;2023-04-15T02:01:03;100849.19;;;9.70;89.07
11440;BME280;5776;51.814;4.510;2023-04-15T02:03:29;100846.75;;;9.68;90.18
11440;BME280;5776;51.814;4.510;2023-04-15T02:05:55;100854.38;;;9.66;89.17
11440;BME280;5776;51.814;4.510;2023-04-15T02:08:21;100856.28;;;9.66;90.45
11440;BME280;5776;51.814;4.510;2023-04-15T02:10:47;100856.53;;;9.64;89.46
11440;BME280;5776;51.814;4.510;2023-04-15T02:13:13;100859.53;;;9.63;90.43
11440;BME280;5776;51.814;4.510;2023-04-15T02:15:39;100863.34;;;9.62;89.94
11440;BME280;5776;51.814;4.510;2023-04-15T02:18:05;100870.66;;;9.61;90.01
11440;BME280;5776;51.814;4.510;2023-04-15T02:20:32;100869.88;;;9.61;89.52
11440;BME280;5776;51.814;4.510;2023-04-15T02:22:59;100867.41;;;9.59;89.70
11440;BME280;5776;51.814;4.510;2023-04-15T02:25:25;100873.09;;;9.58;89.48
11440;BME280;5776;51.814;4.510;2023-04-15T02:27:51;100871.22;;;9.58;89.70
11440;BME280;5776;51.814;4.510;2023-04-15T02:30:17;100866.88;;;9.57;89.53
11440;BME280;5776;51.814;4.510;2023-04-15T02:32:43;100874.47;;;9.55;90.24
11440;BME280;5776;51.814;4.510;2023-04-15T02:35:09;100877.75;;;9.52;90.45
11440;BME280;5776;51.814;4.510;2023-04-15T02:37:36;100883.19;;;9.52;90.36
11440;BME280;5776;51.814;4.510;2023-04-15T02:40:11;100875.84;;;9.52;89.91
11440;BME280;5776;51.814;4.510;2023-04-15T02:42:41;100886.47;;;9.49;90.48
11440;BME280;5776;51.814;4.510;2023-04-15T02:45:09;100888.06;;;9.50;90.59
11440;BME280;5776;51.814;4.510;2023-04-15T02:47:36;100884.81;;;9.48;89.81
11440;BME280;5776;51.814;4.510;2023-04-15T02:50:07;100888.63;;;9.47;90.11
11440;BME280;5776;51.814;4.510;2023-04-15T02:52:33;100899.25;;;9.43;90.15
11440;BME280;5776;51.814;4.510;2023-04-15T02:54:59;100905.47;;;9.44;90.41
11440;BME280;5776;51.814;4.510;2023-04-15T02:57:27;100903.03;;;9.42;90.45
11440;BME280;5776;51.814;4.510;2023-04-15T02:59:54;100914.66;;;9.43;89.59
11440;BME280;5776;51.814;4.510;2023-04-15T03:02:20;100915.50;;;9.43;90.76
11440;BME280;5776;51.814;4.510;2023-04-15T03:04:46;100916.56;;;9.42;90.47
11440;BME280;5776;51.814;4.510;2023-04-15T03:07:12;100917.91;;;9.45;89.98
11440;BME280;5776;51.814;4.510;2023-04-15T03:09:37;100919.59;;;9.41;90.83
11440;BME280;5776;51.814;4.510;2023-04-15T03:12:05;100916.56;;;9.42;90.44
11440;BME280;5776;51.814;4.510;2023-04-15T03:14:32;100922.28;;;9.41;90.17
11440;BME280;5776;51.814;4.510;2023-04-15T03:16:57;100919.59;;;9.36;90.71
11440;BME280;5776;51.814;4.510;2023-04-15T03:19:24;100922.81;;;9.38;90.25
11440;BME280;5776;51.814;4.510;2023-04-15T03:21:50;100924.72;;;9.37;90.83
11440;BME280;5776;51.814;4.510;2023-04-15T03:24:17;100928.25;;;9.38;90.50
11440;BME280;5776;51.814;4.510;2023-04-15T03:26:42;100934.50;;;9.38;90.92
11440;BME280;5776;51.814;4.510;2023-04-15T03:29:08;100931.25;;;9.36;91.15
11440;BME280;5776;51.814;4.510;2023-04-15T03:31:34;100942.34;;;9.35;91.39
11440;BME280;5776;51.814;4.510;2023-04-15T03:34:00;100936.13;;;9.34;90.50
11440;BME280;5776;51.814;4.510;2023-04-15T03:36:28;100942.91;;;9.37;90.42
11440;BME280;5776;51.814;4.510;2023-04-15T03:38:54;100947.78;;;9.35;91.27
11440;BME280;5776;51.814;4.510;2023-04-15T03:41:21;100953.19;;;9.35;91.53
11440;BME280;5776;51.814;4.510;2023-04-15T03:43:47;100945.63;;;9.32;91.45
11440;BME280;5776;51.814;4.510;2023-04-15T03:46:13;100957.28;;;9.32;90.78
11440;BME280;5776;51.814;4.510;2023-04-15T03:48:38;100964.59;;;9.32;91.39
11440;BME280;5776;51.814;4.510;2023-04-15T03:51:04;100962.69;;;9.32;92.53
11440;BME280;5776;51.814;4.510;2023-04-15T03:53:30;100968.41;;;9.30;91.51
11440;BME280;5776;51.814;4.510;2023-04-15T03:55:56;100968.69;;;9.29;91.69
11440;BME280;5776;51.814;4.510;2023-04-15T03:58:22;100972.50;;;9.28;92.65
11440;BME280;5776;51.814;4.510;2023-04-15T04:00:48;100978.44;;;9.25;92.44
11440;BME280;5776;51.814;4.510;2023-04-15T04:03:14;100980.06;;;9.26;92.20
11440;BME280;5776;51.814;4.510;2023-04-15T04:05:39;100982.78;;;9.26;92.30
11440;BME280;5776;51.814;4.510;2023-04-15T04:08:06;100989.56;;;9.23;91.80
11440;BME280;5776;51.814;4.510;2023-04-15T04:10:32;100991.19;;;9.24;91.82
11440;BME280;5776;51.814;4.510;2023-04-15T04:12:58;100987.13;;;9.22;91.60
11440;BME280;5776;51.814;4.510;2023-04-15T04:15:24;100986.03;;;9.23;92.58
11440;BME280;5776;51.814;4.510;2023-04-15T04:17:50;101001.47;;;9.22;91.41
11440;BME280;5776;51.814;4.510;2023-04-15T04:20:16;101006.91;;;9.22;92.39
11440;BME280;5776;51.814;4.510;2023-04-15T04:22:42;101010.97;;;9.20;91.82
11440;BME280;5776;51.814;4.510;2023-04-15T04:25:08;101004.19;;;9.17;91.20
11440;BME280;5776;51.814;4.510;2023-04-15T04:27:37;101015.84;;;9.18;92.18
11440;BME280;5776;51.814;4.510;2023-04-15T04:30:04;101015.03;;;9.17;91.80
11440;BME280;5776;51.814;4.510;2023-04-15T04:32:31;101018.03;;;9.16;92.56
11440;BME280;5776;51.814;4.510;2023-04-15T04:34:57;101016.69;;;9.13;92.23
11440;BME280;5776;51.814;4.510;2023-04-15T04:37:23;101029.13;;;9.14;92.33
11440;BME280;5776;51.814;4.510;2023-04-15T04:39:49;101023.19;;;9.12;91.91
11440;BME280;5776;51.814;4.510;2023-04-15T04:42:15;101027.00;;;9.11;92.79
11440;BME280;5776;51.814;4.510;2023-04-15T04:44:40;101034.31;;;9.11;92.08
11440;BME280;5776;51.814;4.510;2023-04-15T04:47:06;101041.34;;;9.12;92.74
11440;BME280;5776;51.814;4.510;2023-04-15T04:49:32;101040.00;;;9.09;91.79
11440;BME280;5776;51.814;4.510;2023-04-15T04:51:58;101044.59;;;9.08;92.51
11440;BME280;5776;51.814;4.510;2023-04-15T04:54:24;101047.88;;;9.05;91.61
11440;BME280;5776;51.814;4.510;2023-04-15T04:56:52;101050.28;;;9.07;93.00
11440;BME280;5776;51.814;4.510;2023-04-15T04:59:18;101057.59;;;9.06;92.78
11440;BME280;5776;51.814;4.510;2023-04-15T05:01:44;101064.38;;;9.04;92.68
11440;BME280;5776;51.814;4.510;2023-04-15T05:04:10;101069.81;;;9.04;92.18
11440;BME280;5776;51.814;4.510;2023-04-15T05:06:36;101072.75;;;9.02;92.14
11440;BME280;5776;51.814;4.510;2023-04-15T05:09:02;101079.03;;;9.03;92.45
11440;BME280;5776;51.814;4.510;2023-04-15T05:11:28;101080.63;;;9.04;92.72
11440;BME280;5776;51.814;4.510;2023-04-15T05:13:54;101090.94;;;9.02;92.37
11440;BME280;5776;51.814;4.510;2023-04-15T05:16:20;101095.53;;;9.01;92.45
11440;BME280;5776;51.814;4.510;2023-04-15T05:18:46;101101.22;;;9.00;93.04
11440;BME280;5776;51.814;4.510;2023-04-15T05:21:12;101107.72;;;8.99;92.94
11440;BME280;5776;51.814;4.510;2023-04-15T05:23:38;101106.38;;;9.01;92.85
11440;BME280;5776;51.814;4.510;2023-04-15T05:26:04;101105.03;;;8.99;92.57
11440;BME280;5776;51.814;4.510;2023-04-15T05:28:30;101111.25;;;8.99;93.14
11440;BME280;5776;51.814;4.510;2023-04-15T05:30:56;101108.53;;;8.99;93.14
11440;BME280;5776;51.814;4.510;2023-04-15T05:33:22;101112.34;;;8.98;93.17
11440;BME280;5776;51.814;4.510;2023-04-15T05:35:48;101121.28;;;8.99;93.53
11440;BME280;5776;51.814;4.510;2023-04-15T05:38:14;101121.00;;;9.00;93.82
11440;BME280;5776;51.814;4.510;2023-04-15T05:40:40;101122.09;;;8.99;93.17
11440;BME280;5776;51.814;4.510;2023-04-15T05:43:06;101123.97;;;8.99;93.46
11440;BME280;5776;51.814;4.510;2023-04-15T05:45:31;101133.47;;;9.01;93.62
11440;BME280;5776;51.814;4.510;2023-04-15T05:47:57;101142.41;;;9.02;94.48
11440;BME280;5776;51.814;4.510;2023-04-15T05:50:23;101145.41;;;9.00;93.81
11440;BME280;5776;51.814;4.510;2023-04-15T05:52:49;101152.44;;;9.01;93.94
11440;BME280;5776;51.814;4.510;2023-04-15T05:55:15;101152.44;;;9.01;93.60
11440;BME280;5776;51.814;4.510;2023-04-15T05:57:41;101161.38;;;9.02;94.41
11440;BME280;5776;51.814;4.510;2023-04-15T06:00:08;101166.25;;;9.05;94.71
11440;BME280;5776;51.814;4.510;2023-04-15T06:02:34;101179.28;;;9.03;94.04
11440;BME280;5776;51.814;4.510;2023-04-15T06:05:00;101172.75;;;9.04;93.85
11440;BME280;5776;51.814;4.510;2023-04-15T06:07:26;101182.50;;;9.05;95.00
11440;BME280;5776;51.814;4.510;2023-04-15T06:09:52;101188.75;;;9.05;94.07
11440;BME280;5776;51.814;4.510;2023-04-15T06:12:18;101195.53;;;9.08;94.79
11440;BME280;5776;51.814;4.510;2023-04-15T06:14:44;101195.25;;;9.09;94.01
11440;BME280;5776;51.814;4.510;2023-04-15T06:17:09;101201.47;;;9.10;93.93
11440;BME280;5776;51.814;4.510;2023-04-15T06:19:36;101204.72;;;9.12;93.89
11440;BME280;5776;51.814;4.510;2023-04-15T06:22:02;101207.19;;;9.14;94.94
11440;BME280;5776;51.814;4.510;2023-04-15T06:24:28;101216.69;;;9.21;94.42
11440;BME280;5776;51.814;4.510;2023-04-15T06:26:54;101223.72;;;9.38;93.20
11440;BME280;5776;51.814;4.510;2023-04-15T06:29:20;101223.72;;;9.43;93.82
11440;BME280;5776;51.814;4.510;2023-04-15T06:31:47;101231.59;;;9.44;93.25
11440;BME280;5776;51.814;4.510;2023-04-15T06:34:13;101230.25;;;9.47;92.87
11440;BME280;5776;51.814;4.510;2023-04-15T06:36:39;101236.75;;;9.41;94.06
11440;BME280;5776;51.814;4.510;2023-04-15T06:39:05;101247.31;;;9.32;95.14
11440;BME280;5776;51.814;4.510;2023-04-15T06:41:31;101248.66;;;9.24;94.82
11440;BME280;5776;51.814;4.510;2023-04-15T06:43:57;101258.69;;;9.34;94.91
11440;BME280;5776;51.814;4.510;2023-04-15T06:46:23;101256.00;;;9.39;94.66
11440;BME280;5776;51.814;4.510;2023-04-15T06:48:49;101269.81;;;9.43;93.89
11440;BME280;5776;51.814;4.510;2023-04-15T06:51:15;101269.28;;;9.46;94.23
11440;BME280;5776;51.814;4.510;2023-04-15T06:53:41;101265.22;;;9.48;94.05
11440;BME280;5776;51.814;4.510;2023-04-15T06:56:08;101272.00;;;9.51;94.44
11440;BME280;5776;51.814;4.510;2023-04-15T06:58:35;101277.97;;;9.53;93.92
11440;BME280;5776;51.814;4.510;2023-04-15T07:01:01;101275.78;;;9.55;93.68
11440;BME280;5776;51.814;4.510;2023-04-15T07:03:27;101280.16;;;9.56;94.07
11440;BME280;5776;51.814;4.510;2023-04-15T07:05:53;101274.72;;;9.61;94.46
11440;BME280;5776;51.814;4.510;2023-04-15T07:08:19;101286.13;;;9.68;94.54
11440;BME280;5776;51.814;4.510;2023-04-15T07:10:46;101295.63;;;9.71;93.82
11440;BME280;5776;51.814;4.510;2023-04-15T07:13:12;101288.84;;;9.68;93.44
11440;BME280;5776;51.814;4.510;2023-04-15T07:15:38;101296.97;;;9.68;94.50
11440;BME280;5776;51.814;4.510;2023-04-15T07:18:04;101296.97;;;9.68;94.16
11440;BME280;5776;51.814;4.510;2023-04-15T07:20:29;101301.28;;;9.74;94.46
11440;BME280;5776;51.814;4.510;2023-04-15T07:22:55;101301.03;;;9.81;94.16
11440;BME280;5776;51.814;4.510;2023-04-15T07:25:21;101300.75;;;9.88;94.86
11440;BME280;5776;51.814;4.510;2023-04-15T07:27:47;101308.88;;;9.93;94.34
11440;BME280;5776;51.814;4.510;2023-04-15T07:30:13;101314.84;;;10.00;94.31
11440;BME280;5776;51.814;4.510;2023-04-15T07:32:41;101320.03;;;10.02;94.18
11440;BME280;5776;51.814;4.510;2023-04-15T07:35:07;101320.81;;;10.02;94.87
11440;BME280;5776;51.814;4.510;2023-04-15T07:37:34;101324.63;;;10.01;94.18
11440;BME280;5776;51.814;4.510;2023-04-15T07:40:00;101327.34;;;9.96;94.52
11440;BME280;5776;51.814;4.510;2023-04-15T07:42:26;101339.81;;;10.02;94.80
11440;BME280;5776;51.814;4.510;2023-04-15T07:44:53;101332.22;;;10.09;94.10
11440;BME280;5776;51.814;4.510;2023-04-15T07:47:19;101333.84;;;10.15;94.45
11440;BME280;5776;51.814;4.510;2023-04-15T07:49:46;101341.97;;;10.21;94.26
11440;BME280;5776;51.814;4.510;2023-04-15T07:52:12;101342.53;;;10.23;94.42
11440;BME280;5776;51.814;4.510;2023-04-15T07:54:38;101350.94;;;10.26;95.12
11440;BME280;5776;51.814;4.510;2023-04-15T07:57:04;101357.75;;;10.29;95.04
11440;BME280;5776;51.814;4.510;2023-04-15T07:59:29;101360.47;;;10.29;94.83
11440;BME280;5776;51.814;4.510;2023-04-15T08:01:58;101373.50;;;10.32;94.86
11440;BME280;5776;51.814;4.510;2023-04-15T08:04:24;101371.88;;;10.36;95.69
11440;BME280;5776;51.814;4.510;2023-04-15T08:06:50;101379.47;;;10.39;95.29
11440;BME280;5776;51.814;4.510;2023-04-15T08:09:17;101396.31;;;10.36;95.19
11440;BME280;5776;51.814;4.510;2023-04-15T08:11:43;101392.25;;;10.38;95.56
11440;BME280;5776;51.814;4.510;2023-04-15T08:14:09;101396.56;;;10.40;95.77
11440;BME280;5776;51.814;4.510;2023-04-15T08:16:34;101403.91;;;10.44;95.31
11440;BME280;5776;51.814;4.510;2023-04-15T08:19:00;101393.56;;;10.51;95.74
11440;BME280;5776;51.814;4.510;2023-04-15T08:21:26;101403.63;;;10.51;95.48
11440;BME280;5776;51.814;4.510;2023-04-15T08:23:55;101408.78;;;10.52;95.74
11440;BME280;5776;51.814;4.510;2023-04-15T08:26:21;101413.66;;;10.55;96.04
11440;BME280;5776;51.814;4.510;2023-04-15T08:28:47;101424.81;;;10.59;95.68
11440;BME280;5776;51.814;4.510;2023-04-15T08:31:15;101425.06;;;10.63;96.12
11440;BME280;5776;51.814;4.510;2023-04-15T08:33:41;101424.50;;;10.71;96.94
11440;BME280;5776;51.814;4.510;2023-04-15T08:36:07;101432.09;;;10.79;96.36
11440;BME280;5776;51.814;4.510;2023-04-15T08:38:33;101435.34;;;10.86;96.82
11440;BME280;5776;51.814;4.510;2023-04-15T08:41:04;101444.31;;;10.92;96.68
11440;BME280;5776;51.814;4.510;2023-04-15T08:43:41;101442.94;;;10.94;96.66
11440;BME280;5776;51.814;4.510;2023-04-15T08:46:11;101445.63;;;10.99;95.96
11440;BME280;5776;51.814;4.510;2023-04-15T08:48:39;101448.59;;;11.03;96.51
11440;BME280;5776;51.814;4.510;2023-04-15T08:51:05;101448.88;;;11.07;96.86
11440;BME280;5776;51.814;4.510;2023-04-15T08:53:33;101456.50;;;11.05;96.67
11440;BME280;5776;51.814;4.510;2023-04-15T08:56:03;101465.75;;;11.09;96.17
11440;BME280;5776;51.814;4.510;2023-04-15T08:58:30;101474.69;;;11.14;96.71
11440;BME280;5776;51.814;4.510;2023-04-15T09:00:57;101466.78;;;11.18;96.15
11440;BME280;5776;51.814;4.510;2023-04-15T09:03:23;101471.66;;;11.21;96.31
11440;BME280;5776;51.814;4.510;2023-04-15T09:05:49;101482.53;;;11.31;96.76
11440;BME280;5776;51.814;4.510;2023-04-15T09:08:15;101478.44;;;11.34;95.87
11440;BME280;5776;51.814;4.510;2023-04-15T09:10:41;101488.47;;;11.38;95.66
11440;BME280;5776;51.814;4.510;2023-04-15T09:13:07;101485.22;;;11.36;94.97
11440;BME280;5776;51.814;4.510;2023-04-15T09:15:37;101493.41;;;11.36;95.08
11440;BME280;5776;51.814;4.510;2023-04-15T09:18:03;101496.09;;;11.41;94.59
11440;BME280;5776;51.814;4.510;2023-04-15T09:20:29;101496.34;;;11.45;93.54
11440;BME280;5776;51.814;4.510;2023-04-15T09:22:55;101498.53;;;11.43;93.46
11440;BME280;5776;51.814;4.510;2023-04-15T09:27:52;101511.00;;;11.54;93.63
11440;BME280;5776;51.814;4.510;2023-04-15T09:30:18;101520.50;;;11.57;93.72
11440;BME280;5776;51.814;4.510;2023-04-15T09:32:51;101520.25;;;11.53;93.70
11440;BME280;5776;51.814;4.510;2023-04-15T09:35:19;101527.56;;;11.58;93.26
11440;BME280;5776;51.814;4.510;2023-04-15T09:37:45;101524.59;;;11.59;93.29
11440;BME280;5776;51.814;4.510;2023-04-15T09:40:12;101521.84;;;11.64;93.24
11440;BME280;5776;51.814;4.510;2023-04-15T09:42:55;101530.25;;;11.68;92.86
11440;BME280;5776;51.814;4.510;2023-04-15T09:45:21;101530.78;;;11.70;91.78
11440;BME280;5776;51.814;4.510;2023-04-15T09:47:47;101528.34;;;11.74;91.05
11440;BME280;5776;51.814;4.510;2023-04-15T09:50:13;101536.16;;;11.85;92.29
11440;BME280;5776;51.814;4.510;2023-04-15T09:52:40;101539.69;;;11.86;91.67
11440;BME280;5776;51.814;4.510;2023-04-15T09:55:08;101542.97;;;11.93;90.35
11440;BME280;5776;51.814;4.510;2023-04-15T09:57:35;101548.41;;;11.93;89.57
11440;BME280;5776;51.814;4.510;2023-04-15T10:00:06;101546.50;;;11.94;88.66
11440;BME280;5776;51.814;4.510;2023-04-15T10:02:34;101548.94;;;11.95;89.71
11440;BME280;5776;51.814;4.510;2023-04-15T10:05:01;101546.47;;;12.04;88.62
11440;BME280;5776;51.814;4.510;2023-04-15T10:07:28;101551.06;;;12.03;87.86
11440;BME280;5776;51.814;4.510;2023-04-15T10:09:54;101555.72;;;12.03;87.46
11440;BME280;5776;51.814;4.510;2023-04-15T10:12:21;101559.72;;;12.16;87.63
11440;BME280;5776;51.814;4.510;2023-04-15T10:15:00;101567.34;;;12.14;86.98
11440;BME280;5776;51.814;4.510;2023-04-15T10:17:27;101565.16;;;12.16;87.40
11440;BME280;5776;51.814;4.510;2023-04-15T10:20:00;101553.97;;;12.22;86.88
11440;BME280;5776;51.814;4.510;2023-04-15T10:22:27;101567.56;;;12.27;86.24
11440;BME280;5776;51.814;4.510;2023-04-15T10:24:55;101564.03;;;12.27;85.99
11440;BME280;5776;51.814;4.510;2023-04-15T10:27:21;101566.19;;;12.30;86.22
11440;BME280;5776;51.814;4.510;2023-04-15T10:29:49;101570.81;;;12.29;85.83
11440;BME280;5776;51.814;4.510;2023-04-15T10:32:18;101574.03;;;12.42;88.97
11440;BME280;5776;51.814;4.510;2023-04-15T10:34:46;101576.47;;;12.38;88.01
11440;BME280;5776;51.814;4.510;2023-04-15T10:37:19;101586.56;;;12.38;87.51
11440;BME280;5776;51.814;4.510;2023-04-15T10:39:46;101579.19;;;12.38;87.37
11440;BME280;5776;51.814;4.510;2023-04-15T10:42:16;101569.38;;;12.42;87.35
11440;BME280;5776;51.814;4.510;2023-04-15T10:44:48;101587.59;;;12.47;87.03
11440;BME280;5776;51.814;4.510;2023-04-15T10:47:18;101583.19;;;12.51;87.14
11440;BME280;5776;51.814;4.510;2023-04-15T10:49:56;101585.91;;;12.56;86.75
11440;BME280;5776;51.814;4.510;2023-04-15T10:52:24;101587.81;;;12.56;85.50
11440;BME280;5776;51.814;4.510;2023-04-15T10:57:40;101598.44;;;12.57;84.93
11440;BME280;5776;51.814;4.510;2023-04-15T11:05:13;101600.50;;;12.70;81.85
11440;BME280;5776;51.814;4.510;2023-04-15T11:12:56;101618.72;;;12.80;84.03
11440;BME280;5776;51.814;4.510;2023-04-15T11:15:38;101613.53;;;12.79;84.44
11440;BME280;5776;51.814;4.510;2023-04-15T11:18:15;101618.44;;;12.82;84.38
11440;BME280;5776;51.814;4.510;2023-04-15T11:20:47;101629.63;;;12.80;84.87
11440;BME280;5776;51.814;4.510;2023-04-15T11:23:14;101625.28;;;12.79;85.21
11440;BME280;5776;51.814;4.510;2023-04-15T11:25:40;101631.31;;;12.71;84.48
11440;BME280;5776;51.814;4.510;2023-04-15T11:28:07;101636.44;;;12.78;85.13
11440;BME280;5776;51.814;4.510;2023-04-15T11:30:35;101641.31;;;12.81;84.36
11440;BME280;5776;51.814;4.510;2023-04-15T11:33:07;101642.41;;;12.85;84.99
11440;BME280;5776;51.814;4.510;2023-04-15T11:35:34;101644.50;;;12.93;84.44
11440;BME280;5776;51.814;4.510;2023-04-15T11:38:04;101645.25;;;13.04;85.33
11440;BME280;5776;51.814;4.510;2023-04-15T11:40:33;101635.69;;;13.06;85.26
11440;BME280;5776;51.814;4.510;2023-04-15T11:43:20;101647.38;;;13.12;84.93
11440;BME280;5776;51.814;4.510;2023-04-15T11:45:58;101650.63;;;13.14;85.20
11440;BME280;5776;51.814;4.510;2023-04-15T11:48:29;101647.66;;;13.10;85.24
11440;BME280;5776;51.814;4.510;2023-04-15T11:50:57;101645.50;;;13.07;86.31
11440;BME280;5776;51.814;4.510;2023-04-15T11:53:24;101649.31;;;13.06;86.62
11440;BME280;5776;51.814;4.510;2023-04-15T11:56:00;101652.00;;;13.11;87.14
11440;BME280;5776;51.814;4.510;2023-04-15T11:58:28;101655.78;;;13.15;86.62
11440;BME280;5776;51.814;4.510;2023-04-15T12:00:57;101657.13;;;13.18;87.20
11440;BME280;5776;51.814;4.510;2023-04-15T12:03:25;101650.56;;;13.24;87.41
11440;BME280;5776;51.814;4.510;2023-04-15T12:11:32;101671.03;;;13.16;86.07
11440;BME280;5776;51.814;4.510;2023-04-15T12:14:03;101665.09;;;13.14;85.00
11440;BME280;5776;51.814;4.510;2023-04-15T12:16:29;101674.03;;;13.20;85.29
11440;BME280;5776;51.814;4.510;2023-04-15T12:18:56;101676.13;;;13.33;85.87
11440;BME280;5776;51.814;4.510;2023-04-15T12:21:25;101679.16;;;13.32;84.93
11440;BME280;5776;51.814;4.510;2023-04-15T12:23:54;101688.44;;;13.26;85.17
11440;BME280;5776;51.814;4.510;2023-04-15T12:29:15;101697.19;;;13.23;83.76
11440;BME280;5776;51.814;4.510;2023-04-15T12:37:00;101704.56;;;13.27;82.45
11440;BME280;5776;51.814;4.510;2023-04-15T12:39:46;101708.25;;;13.42;82.56
11440;BME280;5776;51.814;4.510;2023-04-15T12:42:13;101707.66;;;13.50;84.30
11440;BME280;5776;51.814;4.510;2023-04-15T12:44:40;101703.81;;;13.51;83.30
11440;BME280;5776;51.814;4.510;2023-04-15T12:47:08;101705.78;;;13.45;82.61
11440;BME280;5776;51.814;4.510;2023-04-15T12:49:33;101706.31;;;13.47;82.96
11440;BME280;5776;51.814;4.510;2023-04-15T12:52:01;101713.97;;;13.45;83.17
11440;BME280;5776;51.814;4.510;2023-04-15T12:54:28;101715.03;;;13.44;82.47
11440;BME280;5776;51.814;4.510;2023-04-15T12:56:55;101724.97;;;13.35;82.37
11440;BME280;5776;51.814;4.510;2023-04-15T12:59:21;101726.88;;;13.34;82.29
11440;BME280;5776;51.814;4.510;2023-04-15T13:01:49;101732.34;;;13.34;83.49
11440;BME280;5776;51.814;4.510;2023-04-15T13:04:15;101737.78;;;13.34;83.86
11440;BME280;5776;51.814;4.510;2023-04-15T13:06:41;101734.00;;;13.30;82.92
11440;BME280;5776;51.814;4.510;2023-04-15T13:09:07;101743.56;;;13.28;83.46
11440;BME280;5776;51.814;4.510;2023-04-15T13:11:33;101733.41;;;13.33;83.30
11440;BME280;5776;51.814;4.510;2023-04-15T13:14:00;101748.44;;;13.31;82.76
11440;BME280;5776;51.814;4.510;2023-04-15T13:16:27;101752.28;;;13.30;81.92
11440;BME280;5776;51.814;4.510;2023-04-15T13:18:53;101756.34;;;13.32;82.75
11440;BME280;5776;51.814;4.510;2023-04-15T13:21:19;101757.16;;;13.33;83.70
11440;BME280;5776;51.814;4.510;2023-04-15T13:23:45;101759.91;;;13.33;82.76
11440;BME280;5776;51.814;4.510;2023-04-15T13:26:11;101756.94;;;13.29;83.35
11440;BME280;5776;51.814;4.510;2023-04-15T13:28:37;101753.09;;;13.30;81.79
11440;BME280;5776;51.814;4.510;2023-04-15T13:31:04;101752.28;;;13.30;81.96
11440;BME280;5776;51.814;4.510;2023-04-15T13:33:30;101766.47;;;13.32;81.82